Time;durP1;ratioP1;P1;durP2;ratioP2;P2;SDS_P1;SDS_P2;PMS_P1;PMS_P2;Temp;Humidity;BMP_temperature;BMP_pressure;BME280_temperature;BME280_humidity;BME280_pressure;Samples;Min_cycle;Max_cycle;Signal;HPM_P1;HPM_P2
2022/06/09 00:01:17;;;;;;;4.43;1.95;;;17.10;99.90;;;;;;5033783;28;20247;-86
2022/06/09 00:03:54;;;;;;;2.67;1.60;;;17.20;99.90;;;;;;5029543;28;20527;-87
2022/06/09 00:06:21;;;;;;;3.92;1.80;;;17.20;99.90;;;;;;5014010;28;20262;-86
2022/06/09 00:08:50;;;;;;;4.07;1.80;;;17.10;99.90;;;;;;5030154;28;20191;-88
2022/06/09 00:11:22;;;;;;;5.35;1.73;;;17.20;99.90;;;;;;5030309;28;20258;-87
2022/06/09 00:13:48;;;;;;;6.25;1.90;;;17.10;99.90;;;;;;5030262;28;20637;-87
2022/06/09 00:16:14;;;;;;;6.30;2.00;;;17.10;99.90;;;;;;5023165;28;20186;-87
2022/06/09 00:18:40;;;;;;;3.80;1.90;;;17.10;99.90;;;;;;5049984;28;20210;-85
2022/06/09 00:21:06;;;;;;;3.45;1.98;;;17.10;99.90;;;;;;5034546;28;20682;-86
2022/06/09 00:23:32;;;;;;;3.95;1.90;;;17.10;99.90;;;;;;5032739;28;20186;-85
2022/06/09 00:25:57;;;;;;;3.70;1.80;;;17.10;99.90;;;;;;5033232;28;20183;-87
2022/06/09 00:28:23;;;;;;;7.75;2.10;;;17.00;99.90;;;;;;5029856;28;20636;-86
2022/06/09 00:30:50;;;;;;;4.18;2.03;;;17.00;99.90;;;;;;5015228;28;20183;-88
2022/06/09 00:33:16;;;;;;;8.18;2.50;;;17.00;99.90;;;;;;5026100;28;20186;-89
2022/06/09 00:35:42;;;;;;;7.32;2.30;;;17.00;99.90;;;;;;5033191;28;20174;-88
2022/06/09 00:38:08;;;;;;;8.38;2.25;;;17.00;99.90;;;;;;5032892;28;20297;-89
2022/06/09 00:40:33;;;;;;;5.28;1.80;;;17.00;99.90;;;;;;5033380;28;20254;-86
2022/06/09 00:43:01;;;;;;;5.22;2.17;;;17.00;99.90;;;;;;5029245;28;20490;-88
2022/06/09 00:45:33;;;;;;;4.65;2.00;;;17.00;99.90;;;;;;5033002;28;20221;-88
2022/06/09 00:48:13;;;;;;;7.20;2.17;;;17.00;99.90;;;;;;5035491;28;20209;-88
2022/06/09 00:50:40;;;;;;;3.53;1.65;;;17.00;99.90;;;;;;5036998;28;20368;-88
2022/06/09 00:53:14;;;;;;;3.05;1.80;;;17.00;99.90;;;;;;5037365;28;20274;-88
2022/06/09 00:55:41;;;;;;;4.28;2.17;;;17.00;99.90;;;;;;5038008;28;20173;-87
2022/06/09 00:58:15;;;;;;;3.80;2.00;;;17.00;99.90;;;;;;5032945;28;20207;-88
2022/06/09 01:00:49;;;;;;;4.28;1.60;;;17.00;99.90;;;;;;5020904;28;20258;-88
2022/06/09 01:03:18;;;;;;;3.63;1.75;;;17.00;99.90;;;;;;5028011;28;20552;-89
2022/06/09 01:05:45;;;;;;;3.53;1.60;;;17.00;99.90;;;;;;5352155;23;20929;-86
2022/06/09 01:08:12;;;;;;;12.45;2.63;;;17.00;99.90;;;;;;5044444;28;20202;-86
2022/06/09 01:10:39;;;;;;;7.90;2.35;;;16.90;99.90;;;;;;5037518;28;20209;-88
2022/06/09 01:13:05;;;;;;;3.75;1.92;;;16.90;99.90;;;;;;5036076;28;20182;-87
2022/06/09 01:16:04;;;;;;;8.05;2.17;;;16.90;99.90;;;;;;5037208;28;20171;-86
2022/06/09 01:18:53;;;;;;;5.88;2.15;;;16.90;99.90;;;;;;5037382;28;20195;-86
2022/06/09 01:21:52;;;;;;;3.80;1.60;;;16.80;99.90;;;;;;5037441;28;20558;-85
2022/06/09 01:24:37;;;;;;;6.10;1.70;;;16.90;99.90;;;;;;5031549;28;20305;-86
2022/06/09 01:27:18;;;;;;;3.72;1.70;;;16.90;99.90;;;;;;5037155;28;20658;-87
2022/06/09 01:30:00;;;;;;;4.57;1.98;;;16.90;99.90;;;;;;5032785;28;20594;-90
2022/06/09 01:32:32;;;;;;;5.70;2.10;;;16.80;99.90;;;;;;5026558;28;20178;-91
2022/06/09 01:35:09;;;;;;;4.03;1.70;;;16.80;99.90;;;;;;5055869;28;20169;-90
2022/06/09 01:37:41;;;;;;;3.47;1.60;;;16.80;99.90;;;;;;5057063;28;20174;-87
2022/06/09 01:40:10;;;;;;;4.05;1.77;;;16.80;99.90;;;;;;5056872;28;20208;-87
2022/06/09 01:42:39;;;;;;;2.40;1.58;;;16.70;99.90;;;;;;5055758;28;20186;-87
2022/06/09 01:45:14;;;;;;;2.70;1.52;;;16.70;99.90;;;;;;5055483;28;20207;-86
2022/06/09 01:47:55;;;;;;;2.53;1.60;;;16.70;99.90;;;;;;5056819;28;20170;-83
2022/06/09 01:51:01;;;;;;;5.93;1.60;;;16.60;99.90;;;;;;5056808;28;20212;-87
2022/06/09 01:53:38;;;;;;;6.47;1.75;;;16.70;99.90;;;;;;5056446;28;20169;-86
2022/06/09 01:56:10;;;;;;;4.95;1.70;;;16.60;99.90;;;;;;5055386;28;20169;-83
2022/06/09 01:58:42;;;;;;;4.95;1.77;;;16.60;99.90;;;;;;5055948;28;20202;-85
2022/06/09 02:01:09;;;;;;;5.05;1.88;;;16.60;99.90;;;;;;5056412;28;20173;-84
2022/06/09 02:03:40;;;;;;;4.72;2.10;;;16.50;99.90;;;;;;5041587;28;20182;-85
2022/06/09 02:06:07;;;;;;;3.78;1.80;;;16.50;99.90;;;;;;5036320;28;20219;-86
2022/06/09 02:08:35;;;;;;;6.50;1.80;;;16.50;99.90;;;;;;5036450;28;20166;-83
2022/06/09 02:11:06;;;;;;;4.40;2.20;;;16.50;99.90;;;;;;5036355;28;20600;-84
2022/06/09 02:13:40;;;;;;;3.67;1.77;;;16.40;99.90;;;;;;5035571;28;20198;-82
2022/06/09 02:16:08;;;;;;;4.95;1.80;;;16.50;99.90;;;;;;5036048;28;20166;-84
2022/06/09 02:18:42;;;;;;;4.72;1.80;;;16.50;99.90;;;;;;5045566;28;20205;-83
2022/06/09 02:21:31;;;;;;;4.13;2.17;;;16.40;99.90;;;;;;5054375;28;20216;-86
2022/06/09 02:23:57;;;;;;;2.10;1.65;;;16.40;99.90;;;;;;5054815;28;20180;-85
2022/06/09 02:26:23;;;;;;;3.78;2.10;;;16.40;99.90;;;;;;5054595;28;20178;-83
2022/06/09 02:28:49;;;;;;;4.40;1.70;;;16.40;99.90;;;;;;5054126;28;20173;-86
2022/06/09 02:31:17;;;;;;;2.13;1.90;;;16.30;99.90;;;;;;5055878;28;20586;-87
2022/06/09 02:33:42;;;;;;;2.85;2.10;;;16.30;99.90;;;;;;5040017;28;20200;-87
2022/06/09 02:36:08;;;;;;;4.75;2.15;;;16.30;99.90;;;;;;5034712;28;20178;-87
2022/06/09 02:38:34;;;;;;;3.65;2.22;;;16.30;99.90;;;;;;5034668;28;20206;-85
2022/06/09 02:40:59;;;;;;;4.18;2.45;;;16.20;99.90;;;;;;5035842;28;20171;-88
2022/06/09 02:43:25;;;;;;;3.55;2.22;;;16.20;99.90;;;;;;5035809;28;20269;-89
2022/06/09 02:45:51;;;;;;;4.15;2.42;;;16.20;99.90;;;;;;5035537;28;20484;-90
2022/06/09 02:48:18;;;;;;;4.93;2.30;;;16.20;99.90;;;;;;5052365;28;20189;-88
2022/06/09 02:50:46;;;;;;;4.13;2.35;;;16.10;99.90;;;;;;5055501;28;20619;-86
2022/06/09 02:53:11;;;;;;;5.50;2.53;;;16.20;99.90;;;;;;5053909;28;20276;-89
2022/06/09 02:55:37;;;;;;;4.70;2.45;;;16.10;99.90;;;;;;5055330;28;20660;-87
2022/06/09 02:58:02;;;;;;;5.13;2.85;;;16.10;99.90;;;;;;5055382;28;20189;-84
2022/06/09 03:00:28;;;;;;;5.55;2.63;;;16.10;99.90;;;;;;5054296;28;20323;-86
2022/06/09 03:03:02;;;;;;;4.07;2.35;;;16.10;99.90;;;;;;5054899;28;20635;-87
2022/06/09 03:05:30;;;;;;;4.78;2.47;;;16.10;99.90;;;;;;5041794;28;20202;-86
2022/06/09 03:07:56;;;;;;;2.92;2.33;;;16.10;99.90;;;;;;5034957;28;20700;-86
2022/06/09 03:10:23;;;;;;;9.27;3.22;;;16.10;99.90;;;;;;5034622;28;20176;-88
2022/06/09 03:12:49;;;;;;;6.75;2.97;;;16.00;99.90;;;;;;5035659;28;20171;-89
2022/06/09 03:15:17;;;;;;;5.20;3.10;;;16.00;99.90;;;;;;5035190;28;20691;-91
2022/06/09 03:17:43;;;;;;;5.55;3.55;;;16.00;99.90;;;;;;5048063;28;20612;-88
2022/06/09 03:20:31;;;;;;;7.82;3.30;;;16.00;99.90;;;;;;5055075;28;20206;-86
2022/06/09 03:22:57;;;;;;;5.75;3.38;;;16.00;99.90;;;;;;5054132;28;20174;-87
2022/06/09 03:25:23;;;;;;;4.85;3.58;;;16.00;99.90;;;;;;5054368;28;20181;-88
2022/06/09 03:27:49;;;;;;;8.00;3.88;;;16.00;99.90;;;;;;5055277;28;20182;-88
2022/06/09 03:30:16;;;;;;;5.28;3.42;;;15.90;99.90;;;;;;5054190;28;20185;-90
2022/06/09 03:32:41;;;;;;;5.10;3.67;;;15.90;99.90;;;;;;5054269;28;20197;-94
2022/06/09 03:35:08;;;;;;;5.32;3.78;;;15.90;99.90;;;;;;5054684;28;20655;-88
2022/06/09 03:37:35;;;;;;;5.10;3.83;;;15.90;99.90;;;;;;5054801;28;20196;-91
2022/06/09 03:40:02;;;;;;;6.50;4.15;;;15.90;99.90;;;;;;5053681;28;20206;-88
2022/06/09 03:42:27;;;;;;;6.47;4.78;;;15.90;99.90;;;;;;5053862;28;20174;-91
2022/06/09 03:44:53;;;;;;;7.88;3.95;;;15.90;99.90;;;;;;5054767;28;20185;-91
2022/06/09 03:47:18;;;;;;;6.30;4.68;;;15.90;99.90;;;;;;5054405;28;20632;-90
2022/06/09 03:49:44;;;;;;;7.97;5.05;;;15.80;99.90;;;;;;5054841;28;20211;-88
2022/06/09 03:52:09;;;;;;;9.77;4.50;;;15.90;99.90;;;;;;5054979;28;20608;-89
2022/06/09 03:54:35;;;;;;;5.82;4.80;;;15.90;99.90;;;;;;5054026;28;20252;-95
2022/06/09 03:57:01;;;;;;;8.15;4.95;;;15.80;99.90;;;;;;5041859;28;20238;-87
2022/06/09 03:59:26;;;;;;;9.27;5.18;;;15.90;99.90;;;;;;5033898;28;20253;-89
2022/06/09 04:01:52;;;;;;;8.13;5.53;;;15.90;99.90;;;;;;5034546;28;20167;-88
2022/06/09 04:04:17;;;;;;;8.55;6.18;;;15.90;99.90;;;;;;5034551;28;20182;-89
2022/06/09 04:06:43;;;;;;;8.60;5.50;;;15.90;99.90;;;;;;5035030;28;20217;-90
2022/06/09 04:09:10;;;;;;;10.43;6.13;;;16.00;99.90;;;;;;5034620;28;20690;-90
2022/06/09 04:11:35;;;;;;;8.73;5.93;;;15.90;99.90;;;;;;5034976;28;20190;-89
2022/06/09 04:14:01;;;;;;;7.65;5.90;;;16.00;99.90;;;;;;5033682;28;20201;-91
2022/06/09 04:16:33;;;;;;;14.00;6.15;;;16.00;99.90;;;;;;5037165;28;20304;-93
2022/06/09 04:19:02;;;;;;;8.50;5.75;;;16.00;99.90;;;;;;5047643;28;20263;-91
2022/06/09 04:21:30;;;;;;;9.02;5.82;;;16.00;99.90;;;;;;5035975;28;20190;-91
2022/06/09 04:23:56;;;;;;;9.02;5.57;;;16.00;99.90;;;;;;5038898;28;20220;-94
2022/06/09 04:26:24;;;;;;;10.68;6.63;;;16.10;99.90;;;;;;5038730;28;20185;-90
2022/06/09 04:28:50;;;;;;;7.63;6.10;;;16.10;99.90;;;;;;5038786;28;20170;-91
2022/06/09 04:31:16;;;;;;;8.00;5.85;;;16.20;99.90;;;;;;5038741;28;20258;-93
2022/06/09 04:33:42;;;;;;;11.07;6.78;;;16.20;99.90;;;;;;5038492;28;20253;-89
2022/06/09 04:36:10;;;;;;;9.57;6.80;;;16.20;99.90;;;;;;5039224;28;20271;-94
2022/06/09 04:38:36;;;;;;;13.23;6.90;;;16.20;99.90;;;;;;5048765;28;20200;-90
2022/06/09 04:41:09;;;;;;;12.95;6.50;;;16.20;99.90;;;;;;5058676;28;20170;-93
2022/06/09 04:43:39;;;;;;;9.55;6.97;;;16.20;99.90;;;;;;5058210;28;20169;-89
2022/06/09 04:46:06;;;;;;;11.25;7.78;;;16.20;99.90;;;;;;5056932;28;20162;-90
2022/06/09 04:48:33;;;;;;;12.23;6.95;;;16.20;99.90;;;;;;5058119;28;20220;-89
2022/06/09 04:50:59;;;;;;;9.15;6.82;;;16.10;99.90;;;;;;5056932;28;20178;-96
2022/06/09 04:53:25;;;;;;;14.10;7.35;;;16.20;99.90;;;;;;5056979;28;20227;-92
2022/06/09 04:55:51;;;;;;;12.75;7.45;;;16.20;99.90;;;;;;5057136;28;20182;-92
2022/06/09 04:58:17;;;;;;;13.50;7.57;;;16.10;99.90;;;;;;5057414;28;20537;-93
2022/06/09 05:00:44;;;;;;;16.38;7.63;;;16.20;99.90;;;;;;5058212;28;20276;-96
2022/06/09 05:03:13;;;;;;;11.35;7.72;;;16.20;99.90;;;;;;5045747;28;20210;-90
2022/06/09 05:05:41;;;;;;;11.40;7.85;;;16.10;99.90;;;;;;5037980;28;20175;-92
2022/06/09 05:08:07;;;;;;;11.43;7.82;;;16.10;99.90;;;;;;5038109;28;20245;-91
2022/06/09 05:10:33;;;;;;;9.38;7.57;;;16.10;99.90;;;;;;5037834;28;20258;-89
2022/06/09 05:12:59;;;;;;;10.18;7.38;;;16.10;99.90;;;;;;5037800;28;20179;-89
2022/06/09 05:15:25;;;;;;;9.70;7.15;;;16.10;99.90;;;;;;5037573;28;20188;-81
2022/06/09 05:17:52;;;;;;;11.65;6.72;;;16.10;99.90;;;;;;5051842;28;20273;-89
2022/06/09 05:20:21;;;;;;;10.45;7.28;;;16.10;99.90;;;;;;5046819;28;20695;-92
2022/06/09 05:22:46;;;;;;;10.48;6.63;;;16.20;99.90;;;;;;5037901;28;20175;-90
2022/06/09 05:25:13;;;;;;;10.48;7.30;;;16.20;99.90;;;;;;5038198;28;20229;-91
2022/06/09 05:27:39;;;;;;;11.85;6.93;;;16.20;99.90;;;;;;5035928;28;20170;-92
2022/06/09 05:30:08;;;;;;;11.38;7.28;;;16.20;99.90;;;;;;5021664;28;20183;-93
2022/06/09 05:32:34;;;;;;;10.80;7.13;;;16.30;99.90;;;;;;5044277;28;20174;-88
2022/06/09 05:34:59;;;;;;;12.98;7.32;;;16.30;99.90;;;;;;5055139;28;20186;-88
2022/06/09 05:37:25;;;;;;;10.60;7.20;;;16.30;99.90;;;;;;5056919;28;20176;-92
2022/06/09 05:45:19;;;;;;;11.50;7.88;;;16.40;99.90;;;;;;5057244;28;20231;-94
2022/06/09 05:47:45;;;;;;;17.00;7.45;;;16.40;99.90;;;;;;5055559;28;20178;-94
2022/06/09 05:50:11;;;;;;;13.57;7.70;;;16.50;99.90;;;;;;5038732;28;20178;-93
2022/06/09 05:52:36;;;;;;;13.07;8.85;;;16.50;99.90;;;;;;5036320;28;20171;-93
2022/06/09 05:55:02;;;;;;;11.02;7.72;;;16.60;99.90;;;;;;5036323;28;20175;-95
2022/06/09 05:57:29;;;;;;;13.15;7.85;;;16.60;99.90;;;;;;5036273;28;20675;-93
2022/06/09 05:59:55;;;;;;;13.65;7.68;;;16.70;99.90;;;;;;5037851;28;20241;-96
2022/06/09 06:02:24;;;;;;;12.63;8.43;;;16.70;99.90;;;;;;5053244;28;20175;-93
2022/06/09 06:04:50;;;;;;;10.05;7.28;;;16.70;99.90;;;;;;5056919;28;20619;-85
2022/06/09 06:07:16;;;;;;;12.88;8.48;;;16.80;99.90;;;;;;5056384;28;20229;-90
2022/06/09 06:09:42;;;;;;;11.93;7.60;;;16.80;99.90;;;;;;5055565;28;20189;-91
2022/06/09 06:12:08;;;;;;;9.95;7.32;;;16.90;99.90;;;;;;5056873;28;20166;-91
2022/06/09 06:14:34;;;;;;;9.45;8.13;;;17.00;99.90;;;;;;5055572;28;20178;-87
2022/06/09 06:16:59;;;;;;;14.43;7.90;;;17.10;99.90;;;;;;5048415;28;20228;-94
2022/06/09 06:19:25;;;;;;;15.70;8.07;;;17.20;99.90;;;;;;5035395;28;20210;-95
2022/06/09 06:21:53;;;;;;;13.40;7.05;;;17.20;99.90;;;;;;5035172;28;20171;-93
2022/06/09 06:24:21;;;;;;;15.13;8.52;;;17.20;99.90;;;;;;5045604;28;20185;-92
2022/06/09 06:26:46;;;;;;;11.98;7.28;;;17.20;99.90;;;;;;5058798;28;20177;-89
2022/06/09 06:29:15;;;;;;;13.80;7.70;;;17.20;99.90;;;;;;5036073;28;20176;-96
2022/06/09 06:31:42;;;;;;;12.00;7.30;;;17.20;99.90;;;;;;5016620;28;20159;-87
2022/06/09 06:34:08;;;;;;;10.73;7.20;;;17.20;99.90;;;;;;5020939;28;20203;-90
2022/06/09 06:36:35;;;;;;;13.13;7.57;;;17.10;99.90;;;;;;5026613;28;20248;-88
2022/06/09 06:39:00;;;;;;;14.50;7.80;;;17.10;99.90;;;;;;5031024;28;20209;-92
2022/06/09 06:41:26;;;;;;;11.13;7.63;;;17.20;99.90;;;;;;5069130;28;20270;-95
2022/06/09 06:43:52;;;;;;;13.18;8.90;;;17.20;99.90;;;;;;5035837;28;20261;-96
2022/06/09 06:46:18;;;;;;;14.85;8.18;;;17.20;99.90;;;;;;5039294;28;20166;-96
2022/06/09 06:48:45;;;;;;;14.77;8.00;;;17.30;99.90;;;;;;5056812;28;20173;-95
2022/06/09 06:51:11;;;;;;;11.57;7.57;;;17.30;99.90;;;;;;5054352;28;20849;-95
2022/06/09 06:53:38;;;;;;;13.55;7.47;;;17.30;99.90;;;;;;5016244;28;20179;-89
2022/06/09 06:56:04;;;;;;;13.38;8.18;;;17.30;99.90;;;;;;5016116;28;20266;-86
2022/06/09 06:58:30;;;;;;;12.38;8.40;;;17.30;99.90;;;;;;5018591;28;20199;-93
2022/06/09 07:00:58;;;;;;;12.77;8.35;;;17.30;99.90;;;;;;5034646;28;20193;-93
2022/06/09 07:03:24;;;;;;;12.63;7.22;;;17.30;99.90;;;;;;5035038;28;20190;-95
2022/06/09 07:05:49;;;;;;;10.15;7.18;;;17.30;99.90;;;;;;5034545;28;20235;-90
2022/06/09 07:08:16;;;;;;;13.32;7.78;;;17.40;99.90;;;;;;5037778;28;20182;-90
2022/06/09 07:10:45;;;;;;;14.85;7.43;;;17.40;99.90;;;;;;5035096;28;20269;-96
2022/06/09 07:13:11;;;;;;;10.40;7.35;;;17.40;99.90;;;;;;5049816;28;20636;-87
2022/06/09 07:15:37;;;;;;;10.95;7.85;;;17.50;99.90;;;;;;5016179;28;20194;-91
2022/06/09 07:18:03;;;;;;;15.00;7.68;;;17.50;99.90;;;;;;5049372;28;20181;-94
2022/06/09 07:20:34;;;;;;;11.00;7.60;;;17.50;99.90;;;;;;5055198;28;20174;-85
2022/06/09 07:23:00;;;;;;;15.32;7.57;;;17.60;99.90;;;;;;5019898;28;20512;-95
2022/06/09 07:25:26;;;;;;;18.60;9.05;;;17.60;99.90;;;;;;5051462;28;20186;-91
2022/06/09 07:27:53;;;;;;;11.43;8.07;;;17.50;99.90;;;;;;5035596;28;20677;-94
2022/06/09 07:30:27;;;;;;;16.20;9.85;;;17.50;99.90;;;;;;5014707;28;20229;-90
2022/06/09 07:32:53;;;;;;;13.07;8.73;;;17.40;99.90;;;;;;5028136;28;20182;-91
2022/06/09 07:35:22;;;;;;;15.15;8.57;;;17.40;99.90;;;;;;5034273;28;20236;-91
2022/06/09 07:37:48;;;;;;;14.25;8.85;;;17.40;99.90;;;;;;5034529;28;20182;-92
2022/06/09 07:40:14;;;;;;;13.73;9.05;;;17.40;99.90;;;;;;5035374;28;20671;-94
2022/06/09 07:42:40;;;;;;;14.43;9.52;;;17.40;99.90;;;;;;5034318;28;20171;-91
2022/06/09 07:45:09;;;;;;;11.55;9.15;;;17.40;99.90;;;;;;5031246;28;20226;-92
2022/06/09 07:47:35;;;;;;;13.95;9.30;;;17.40;99.90;;;;;;5034927;28;20202;-89
2022/06/09 07:50:06;;;;;;;13.93;9.43;;;17.20;99.90;;;;;;5033943;28;20518;-90
2022/06/09 07:52:32;;;;;;;20.92;9.60;;;17.20;99.90;;;;;;5034265;28;20170;-87
2022/06/09 07:54:57;;;;;;;13.50;9.55;;;17.20;99.90;;;;;;5033980;28;20248;-90
2022/06/09 07:57:23;;;;;;;12.77;9.52;;;17.20;99.90;;;;;;5034773;28;20178;-91
2022/06/09 07:59:50;;;;;;;14.65;9.85;;;17.20;99.90;;;;;;5034909;28;20289;-88
2022/06/09 08:02:16;;;;;;;12.50;8.65;;;17.20;99.90;;;;;;5055441;28;20632;-90
2022/06/09 08:04:42;;;;;;;18.55;9.73;;;17.20;99.90;;;;;;5025224;28;20179;-91
2022/06/09 08:07:07;;;;;;;13.93;8.70;;;17.30;99.90;;;;;;5013762;28;20223;-92
2022/06/09 08:09:33;;;;;;;21.17;9.93;;;17.40;99.90;;;;;;5017068;28;20179;-90
2022/06/09 08:12:05;;;;;;;23.17;9.32;;;17.40;99.90;;;;;;5040862;28;20197;-91
2022/06/09 08:14:30;;;;;;;16.35;9.13;;;17.40;99.90;;;;;;5033244;28;20213;-93
2022/06/09 08:16:56;;;;;;;16.15;8.75;;;17.40;99.90;;;;;;5037729;28;20556;-90
2022/06/09 08:19:22;;;;;;;14.30;7.85;;;17.40;99.90;;;;;;5054287;28;20298;-91
2022/06/09 08:21:50;;;;;;;9.55;7.65;;;17.50;99.90;;;;;;5053778;28;20596;-87
2022/06/09 08:24:16;;;;;;;10.35;6.85;;;17.50;99.90;;;;;;5045704;28;20183;-89
2022/06/09 08:26:42;;;;;;;11.02;7.53;;;17.40;99.90;;;;;;5033920;28;20269;-92
2022/06/09 08:29:09;;;;;;;13.55;7.70;;;17.50;99.90;;;;;;5034795;28;20177;-95
2022/06/09 08:31:37;;;;;;;10.77;7.15;;;17.60;99.90;;;;;;5022125;28;20649;-91
2022/06/09 08:34:03;;;;;;;10.93;7.10;;;17.80;99.90;;;;;;5050294;28;20185;-91
2022/06/09 08:36:28;;;;;;;9.70;6.80;;;17.90;99.90;;;;;;5052646;28;20182;-95
2022/06/09 08:38:54;;;;;;;10.57;6.53;;;18.00;99.90;;;;;;5053456;28;20209;-92
2022/06/09 08:41:36;;;;;;;16.90;7.15;;;17.90;99.90;;;;;;5053742;28;20228;-92
2022/06/09 08:44:16;;;;;;;10.73;6.70;;;17.80;99.90;;;;;;5053333;28;20257;-89
2022/06/09 08:46:49;;;;;;;16.85;7.20;;;17.70;99.90;;;;;;5027333;28;20272;-91
2022/06/09 08:49:31;;;;;;;15.85;6.88;;;17.70;99.90;;;;;;5053185;28;20273;-90
2022/06/09 08:52:22;;;;;;;11.30;6.78;;;17.60;99.90;;;;;;5020534;28;20171;-89
2022/06/09 08:54:50;;;;;;;8.52;6.60;;;17.50;99.90;;;;;;5050041;28;20254;-91
2022/06/09 08:57:18;;;;;;;14.73;7.13;;;17.40;99.90;;;;;;5033824;28;20178;-94
2022/06/09 08:59:53;;;;;;;10.15;7.38;;;17.40;99.90;;;;;;5034921;28;20206;-96
2022/06/09 09:02:39;;;;;;;13.50;7.53;;;17.40;99.90;;;;;;5038763;28;20286;-96
2022/06/09 09:05:43;;;;;;;10.52;6.82;;;17.50;99.90;;;;;;5055454;28;20521;-96
2022/06/09 09:08:09;;;;;;;10.20;7.20;;;17.80;99.90;;;;;;5041267;28;20624;-93
2022/06/09 09:11:16;;;;;;;9.85;6.82;;;18.00;99.90;;;;;;5038501;28;20179;-94
2022/06/09 09:14:01;;;;;;;9.57;7.13;;;18.20;99.90;;;;;;5037269;28;20174;-94
2022/06/09 09:16:55;;;;;;;12.88;6.57;;;18.50;99.90;;;;;;5038315;28;20182;-95
2022/06/09 09:19:40;;;;;;;11.88;6.05;;;18.60;99.90;;;;;;4987242;28;20247;-96
2022/06/09 09:22:34;;;;;;;9.02;5.78;;;18.70;99.90;;;;;;5038854;28;20250;-93
2022/06/09 09:24:59;;;;;;;9.25;4.85;;;18.70;99.90;;;;;;5056581;28;20185;-92
2022/06/09 09:27:44;;;;;;;9.35;4.90;;;18.70;99.90;;;;;;5045956;28;20265;-91
2022/06/09 09:30:30;;;;;;;10.20;5.18;;;18.70;99.90;;;;;;5037702;28;20166;-90
2022/06/09 09:32:58;;;;;;;8.90;4.60;;;18.70;99.90;;;;;;5035903;28;20236;-93
2022/06/09 09:35:41;;;;;;;9.27;4.30;;;18.70;99.90;;;;;;5036477;28;20167;-94
2022/06/09 09:38:08;;;;;;;6.32;4.75;;;18.80;99.90;;;;;;5037345;28;20167;-92
2022/06/09 09:40:44;;;;;;;7.55;4.43;;;18.80;99.90;;;;;;5033107;28;20211;-93
2022/06/09 09:43:19;;;;;;;7.15;4.30;;;18.80;99.90;;;;;;5032834;28;20182;-93
2022/06/09 09:45:49;;;;;;;6.60;3.45;;;18.80;99.90;;;;;;5017499;28;20190;-90
2022/06/09 09:48:17;;;;;;;7.10;3.92;;;18.80;99.90;;;;;;5054044;28;20170;-89
2022/06/09 09:51:06;;;;;;;6.05;4.03;;;18.90;99.90;;;;;;5021209;28;20183;-94
2022/06/09 09:53:46;;;;;;;8.30;3.80;;;19.00;99.90;;;;;;5016141;28;20171;-93
2022/06/09 09:56:17;;;;;;;6.22;3.85;;;19.10;99.90;;;;;;5017346;28;20690;-91
2022/06/09 09:58:49;;;;;;;9.00;4.18;;;19.20;99.90;;;;;;5017325;28;20210;-86
2022/06/09 10:01:16;;;;;;;9.68;4.22;;;19.20;99.90;;;;;;5031441;28;20788;-90
2022/06/09 10:09:50;;;;;;;7.85;4.43;;;19.60;99.90;;;;;;5017234;28;20625;-91
2022/06/09 10:12:26;;;;;;;7.47;3.58;;;19.60;99.90;;;;;;5017411;28;20170;-88
2022/06/09 10:14:57;;;;;;;8.32;4.15;;;19.60;99.90;;;;;;5030596;28;20240;-89
2022/06/09 10:17:43;;;;;;;9.35;4.80;;;19.70;99.90;;;;;;5048334;28;20178;-90
2022/06/09 10:20:29;;;;;;;7.00;4.30;;;19.80;99.90;;;;;;5056006;28;20194;-93
2022/06/09 10:23:24;;;;;;;8.95;3.85;;;19.90;99.90;;;;;;5056392;28;20178;-91
2022/06/09 10:26:02;;;;;;;7.90;4.28;;;20.20;99.90;;;;;;5047200;28;20163;-92
2022/06/09 10:28:55;;;;;;;7.70;3.90;;;20.60;99.90;;;;;;5068898;28;20177;-92
2022/06/09 10:31:46;;;;;;;10.48;4.50;;;21.00;99.90;;;;;;5063465;28;20788;-91
2022/06/09 10:34:36;;;;;;;6.20;3.17;;;21.40;99.90;;;;;;5035894;28;20248;-91
2022/06/09 10:37:25;;;;;;;7.10;3.80;;;21.50;99.90;;;;;;5036031;28;20237;-93
2022/06/09 10:40:17;;;;;;;5.93;3.35;;;21.60;99.90;;;;;;5055493;28;20210;-90
2022/06/09 10:43:35;;;;;;;6.78;2.78;;;21.60;99.90;;;;;;5036430;28;20285;-91
2022/06/09 10:46:11;;;;;;;7.35;3.30;;;21.90;99.90;;;;;;4993234;28;20273;-88
2022/06/09 10:55:17;;;;;;;9.55;3.25;;;21.80;99.90;;;;;;5016036;28;20174;-91
2022/06/09 10:58:11;;;;;;;5.97;2.70;;;21.70;99.90;;;;;;5016437;28;20177;-82
2022/06/09 11:00:45;;;;;;;7.68;3.13;;;21.70;99.90;;;;;;5016427;28;20202;-88
2022/06/09 11:03:36;;;;;;;5.88;2.72;;;21.80;99.90;;;;;;5025302;28;20213;-89
2022/06/09 11:06:23;;;;;;;5.60;3.17;;;22.10;99.90;;;;;;5026359;28;20281;-91
2022/06/09 11:09:00;;;;;;;6.88;2.58;;;22.10;99.90;;;;;;5026888;28;20190;-95
2022/06/09 11:11:59;;;;;;;4.18;2.38;;;22.20;99.90;;;;;;5031325;28;20338;-93
2022/06/09 11:14:40;;;;;;;3.55;1.98;;;22.00;99.90;;;;;;5015934;28;20186;-85
2022/06/09 11:17:36;;;;;;;5.03;2.15;;;21.70;99.90;;;;;;5040249;28;20185;-87
2022/06/09 11:20:21;;;;;;;4.95;2.10;;;21.70;99.90;;;;;;5055390;28;20258;-87
2022/06/09 11:23:09;;;;;;;5.78;2.10;;;21.90;99.90;;;;;;5049981;28;20186;-90
2022/06/09 11:25:49;;;;;;;3.75;2.10;;;22.00;99.90;;;;;;5014079;28;20573;-85
2022/06/09 11:28:42;;;;;;;5.22;2.22;;;21.90;99.90;;;;;;5014618;28;20190;-88
2022/06/09 11:31:26;;;;;;;5.07;2.50;;;21.80;99.90;;;;;;5014023;28;20563;-89
2022/06/09 11:34:24;;;;;;;5.68;2.00;;;21.70;99.90;;;;;;5030047;28;20497;-88
2022/06/09 11:37:12;;;;;;;3.92;1.55;;;21.50;99.90;;;;;;5034186;28;20183;-87
2022/06/09 11:40:18;;;;;;;4.30;1.70;;;21.40;99.90;;;;;;5022413;28;20699;-86
2022/06/09 11:43:32;;;;;;;4.50;2.25;;;21.40;99.90;;;;;;5019708;28;20197;-88
2022/06/09 11:46:05;;;;;;;3.95;2.05;;;21.60;99.90;;;;;;5021382;28;20202;-87
2022/06/09 11:48:39;;;;;;;5.82;2.10;;;21.60;99.90;;;;;;5031738;28;20273;-89
2022/06/09 11:51:05;;;;;;;7.50;2.40;;;22.00;99.90;;;;;;5034280;28;20247;-87
2022/06/09 11:53:39;;;;;;;5.82;2.10;;;22.20;99.90;;;;;;5032593;28;20598;-86
2022/06/09 11:56:40;;;;;;;2.78;1.60;;;22.60;99.90;;;;;;5037964;28;20181;-86
2022/06/09 11:59:12;;;;;;;3.13;1.42;;;23.00;99.90;;;;;;5013252;28;20302;-87
2022/06/09 12:01:37;;;;;;;7.45;2.13;;;23.40;99.90;;;;;;5015063;28;20176;-89
2022/06/09 12:04:40;;;;;;;4.45;1.67;;;23.60;99.90;;;;;;5065621;28;20635;-88
2022/06/09 12:07:35;;;;;;;3.30;1.55;;;23.90;98.60;;;;;;5054340;28;20308;-87
2022/06/09 12:10:21;;;;;;;2.80;1.67;;;23.40;97.80;;;;;;5044381;28;20196;-85
2022/06/09 12:13:25;;;;;;;4.05;1.63;;;22.80;96.70;;;;;;5054371;28;20170;-87
2022/06/09 12:16:20;;;;;;;5.00;1.77;;;22.40;99.00;;;;;;5043013;28;20193;-86
2022/06/09 12:19:16;;;;;;;5.40;1.70;;;22.30;99.90;;;;;;5054448;28;20221;-86
2022/06/09 12:21:49;;;;;;;6.10;1.70;;;22.20;99.70;;;;;;5054470;28;20173;-87
2022/06/09 12:24:14;;;;;;;4.25;1.73;;;22.30;99.90;;;;;;5054285;28;20178;-86
2022/06/09 12:26:40;;;;;;;5.72;2.22;;;22.70;99.90;;;;;;5053301;28;20223;-86
2022/06/09 12:29:17;;;;;;;5.43;2.10;;;23.10;99.90;;;;;;5044871;28;20183;-80
2022/06/09 12:32:09;;;;;;;5.68;2.20;;;23.40;99.90;;;;;;5034065;28;20213;-83
2022/06/09 12:34:39;;;;;;;3.38;1.90;;;23.30;98.00;;;;;;5032675;28;20175;-87
2022/06/09 12:37:06;;;;;;;1.98;1.50;;;23.20;99.50;;;;;;5032687;28;20233;-87
2022/06/09 12:39:44;;;;;;;5.55;1.90;;;23.00;99.20;;;;;;5026628;28;20242;-85
2022/06/09 12:42:48;;;;;;;5.50;1.73;;;22.70;98.70;;;;;;5013345;28;20171;-89
2022/06/09 12:45:30;;;;;;;3.03;1.90;;;22.20;99.90;;;;;;4960690;28;20266;-81
2022/06/09 12:47:57;;;;;;;3.15;1.38;;;21.80;99.90;;;;;;5036544;28;20209;-86
2022/06/09 12:50:52;;;;;;;4.93;2.10;;;21.40;99.90;;;;;;5057917;28;20170;-88
2022/06/09 12:53:25;;;;;;;4.45;2.10;;;20.90;99.90;;;;;;5039701;28;20182;-85
2022/06/09 12:55:56;;;;;;;5.07;1.80;;;20.60;99.90;;;;;;5056561;28;20204;-85
2022/06/09 12:58:31;;;;;;;5.05;2.00;;;20.40;99.90;;;;;;5044255;28;20179;-85
2022/06/09 13:01:01;;;;;;;5.35;1.85;;;20.30;99.90;;;;;;5018430;28;20497;-83
2022/06/09 13:03:40;;;;;;;3.78;1.90;;;20.20;99.90;;;;;;5041964;28;20182;-83
2022/06/09 13:06:35;;;;;;;4.63;2.15;;;20.10;99.90;;;;;;5069352;28;20174;-84
2022/06/09 13:09:23;;;;;;;4.30;1.85;;;20.10;99.90;;;;;;5030880;28;20269;-87
2022/06/09 13:14:38;;;;;;;3.45;1.63;;;20.20;99.90;;;;;;5037810;28;20196;-86
2022/06/09 13:17:28;;;;;;;3.80;1.67;;;20.30;99.90;;;;;;5038500;28;20170;-84
2022/06/09 13:20:10;;;;;;;5.25;1.65;;;20.50;99.90;;;;;;5057056;28;20225;-84
2022/06/09 13:22:36;;;;;;;3.70;1.80;;;20.90;99.90;;;;;;5057212;28;20614;-85
2022/06/09 13:25:04;;;;;;;2.78;1.60;;;21.20;99.40;;;;;;5045623;28;20197;-86
2022/06/09 13:27:32;;;;;;;4.50;2.03;;;21.60;99.60;;;;;;5069241;28;20179;-83
2022/06/09 13:30:18;;;;;;;2.08;1.55;;;21.90;98.00;;;;;;5036791;28;20497;-86
2022/06/09 13:32:47;;;;;;;4.75;2.05;;;22.30;99.40;;;;;;5037649;28;20676;-85